Zebulon, Georgia
Current Conditions -  °F | °C
As of 3:35 AM on Sunday 23 Nov 2014 (Local Time) from K6A2 Reporting Station
Overcast Overcast  
Wind Chill:   Ceiling: 400
Heat Index:   Visibility: 5mi
Dew Point:   Wind: 7mph
Humidity: 100%   Direction: 80°E
Pressure: 30.1"   Gusts: NA
Location:  33.1°N, 84.34°W
Report Text: K6A2 230835Z AUTO 08006KT 5SM OVC004 09/09 A3010 RMK AO2
Loading
Personal Weather Stations






























Interactive Weather Map New forecast layout! Learn more

10-Day Weather Forecast

Advertisements
Track Severe Weather on mobile